HI1010 TAPA-MDJB
Flight info
| Callsign | HI1010 |
|---|---|
| Flight time | 1h 19m |
| Altitude | 38000 |
| Route | GABAR DCT RIQIE DCT MAZ B892 ANTEX B520 GOSUB L577 LRN W6 CDO UL577 OLITA |
| Aircraft | C750/M-SBDE3FGHRWXY/S |
Departure
| Time | 2026-05-08 02:02 |
|---|---|
| Airport | V. C. Bird International Airport (TAPA) |
Arrival
| Time | 2026-05-08 03:21 |
|---|---|
| Airport | La Isabela International Airport (MDJB) |
| Time | Latitude | Longitude | Altitude | Speed | Heading |
|---|---|---|---|---|---|
| 2026-05-08 01:29 | 17.14026 | -61.78109 | 63 ft | 0 kts | 210° |
| 2026-05-08 01:57 | 17.14024 | -61.78114 | 63 ft | 4 kts | 244° |
| 2026-05-08 01:57 | 17.14057 | -61.78154 | 58 ft | 9 kts | 295° |
| 2026-05-08 01:57 | 17.14065 | -61.78236 | 67 ft | 12 kts | 275° |
| 2026-05-08 01:57 | 17.14073 | -61.78322 | 66 ft | 12 kts | 273° |
| 2026-05-08 01:58 | 17.14079 | -61.78415 | 69 ft | 14 kts | 274° |
| 2026-05-08 01:58 | 17.14080 | -61.78530 | 67 ft | 18 kts | 264° |
| 2026-05-08 01:58 | 17.14029 | -61.78662 | 63 ft | 22 kts | 239° |
| 2026-05-08 01:58 | 17.13946 | -61.78803 | 61 ft | 24 kts | 238° |
| 2026-05-08 01:59 | 17.13856 | -61.78959 | 60 ft | 26 kts | 239° |
| 2026-05-08 01:59 | 17.13758 | -61.79126 | 64 ft | 27 kts | 238° |
| 2026-05-08 01:59 | 17.13655 | -61.79298 | 64 ft | 29 kts | 238° |
| 2026-05-08 01:59 | 17.13549 | -61.79473 | 67 ft | 29 kts | 238° |
| 2026-05-08 02:00 | 17.13433 | -61.79666 | 61 ft | 32 kts | 238° |
| 2026-05-08 02:00 | 17.13317 | -61.79873 | 59 ft | 35 kts | 239° |
| 2026-05-08 02:00 | 17.13193 | -61.80093 | 62 ft | 36 kts | 239° |
| 2026-05-08 02:00 | 17.13070 | -61.80321 | 64 ft | 36 kts | 240° |
| 2026-05-08 02:01 | 17.12982 | -61.80477 | 67 ft | 10 kts | 234° |
| 2026-05-08 02:01 | 17.12969 | -61.80461 | 64 ft | 5 kts | 67° |
| 2026-05-08 02:01 | 17.12998 | -61.80414 | 66 ft | 13 kts | 58° |
| 2026-05-08 02:01 | 17.13208 | -61.80057 | 58 ft | 115 kts | 59° |
| 2026-05-08 02:02 | 17.13749 | -61.79139 | 195 ft | 166 kts | 59° |
| 2026-05-08 02:02 | 17.14401 | -61.78059 | 835 ft | 181 kts | 58° |
| 2026-05-08 02:02 | 17.15088 | -61.76932 | 1648 ft | 189 kts | 59° |
| 2026-05-08 02:02 | 17.15847 | -61.75795 | 2403 ft | 198 kts | 44° |
| 2026-05-08 02:03 | 17.17224 | -61.75317 | 3091 ft | 226 kts | 1° |
| 2026-05-08 02:03 | 17.18712 | -61.75997 | 3804 ft | 255 kts | 322° |
| 2026-05-08 02:03 | 17.19617 | -61.77662 | 4568 ft | 279 kts | 285° |
| 2026-05-08 02:03 | 17.19672 | -61.79736 | 5450 ft | 291 kts | 267° |
| 2026-05-08 02:04 | 17.19471 | -61.81863 | 6396 ft | 299 kts | 265° |
| 2026-05-08 02:04 | 17.19244 | -61.84065 | 7270 ft | 309 kts | 265° |
| 2026-05-08 02:04 | 17.19004 | -61.86343 | 8128 ft | 322 kts | 265° |
| 2026-05-08 02:04 | 17.18754 | -61.88656 | 9357 ft | 320 kts | 265° |
| 2026-05-08 02:05 | 17.18495 | -61.90991 | 10334 ft | 325 kts | 265° |
| 2026-05-08 02:05 | 17.18226 | -61.93356 | 11225 ft | 329 kts | 265° |
| 2026-05-08 02:05 | 17.17978 | -61.95488 | 12056 ft | 331 kts | 265° |
| 2026-05-08 02:05 | 17.17693 | -61.97897 | 12959 ft | 335 kts | 265° |
| 2026-05-08 02:06 | 17.17404 | -62.00326 | 13862 ft | 338 kts | 265° |
| 2026-05-08 02:06 | 17.17233 | -62.02784 | 14618 ft | 341 kts | 271° |
| 2026-05-08 02:06 | 17.17384 | -62.05265 | 15369 ft | 343 kts | 281° |
| 2026-05-08 02:06 | 17.17894 | -62.07708 | 16156 ft | 345 kts | 286° |
| 2026-05-08 02:07 | 17.18516 | -62.10141 | 16966 ft | 350 kts | 287° |
| 2026-05-08 02:07 | 17.19050 | -62.12641 | 17763 ft | 355 kts | 283° |
| 2026-05-08 02:07 | 17.19469 | -62.15215 | 18576 ft | 360 kts | 281° |
| 2026-05-08 02:07 | 17.19921 | -62.17803 | 19278 ft | 365 kts | 283° |
| 2026-05-08 02:08 | 17.20449 | -62.20430 | 20004 ft | 371 kts | 284° |
| 2026-05-08 02:08 | 17.20977 | -62.23095 | 20754 ft | 376 kts | 284° |
| 2026-05-08 02:08 | 17.21471 | -62.25784 | 21481 ft | 383 kts | 283° |
| 2026-05-08 02:08 | 17.21979 | -62.28548 | 22225 ft | 388 kts | 284° |
| 2026-05-08 02:09 | 17.22338 | -62.30437 | 22728 ft | 392 kts | 284° |
| 2026-05-08 02:09 | 17.22878 | -62.33252 | 23456 ft | 398 kts | 285° |
| 2026-05-08 02:09 | 17.23419 | -62.36117 | 24107 ft | 404 kts | 284° |
| 2026-05-08 02:09 | 17.23953 | -62.38986 | 24799 ft | 407 kts | 284° |
| 2026-05-08 02:10 | 17.24505 | -62.41928 | 25490 ft | 411 kts | 284° |
| 2026-05-08 02:10 | 17.25061 | -62.44865 | 26172 ft | 414 kts | 284° |
| 2026-05-08 02:10 | 17.25628 | -62.47887 | 26869 ft | 418 kts | 284° |
| 2026-05-08 02:10 | 17.26187 | -62.50876 | 27554 ft | 421 kts | 284° |
| 2026-05-08 02:11 | 17.26754 | -62.53902 | 28227 ft | 425 kts | 284° |
| 2026-05-08 02:11 | 17.27307 | -62.56849 | 28882 ft | 428 kts | 284° |
| 2026-05-08 02:11 | 17.27882 | -62.59922 | 29530 ft | 432 kts | 284° |
| 2026-05-08 02:11 | 17.28461 | -62.63020 | 30182 ft | 436 kts | 284° |
| 2026-05-08 02:12 | 17.29045 | -62.66149 | 30732 ft | 439 kts | 284° |
| 2026-05-08 02:12 | 17.29629 | -62.69275 | 31251 ft | 443 kts | 284° |
| 2026-05-08 02:12 | 17.30234 | -62.72518 | 31792 ft | 447 kts | 284° |
| 2026-05-08 02:12 | 17.30822 | -62.75679 | 32297 ft | 451 kts | 284° |
| 2026-05-08 02:13 | 17.31432 | -62.78959 | 32803 ft | 455 kts | 284° |
| 2026-05-08 02:13 | 17.32032 | -62.82184 | 33304 ft | 459 kts | 284° |
| 2026-05-08 02:13 | 17.32653 | -62.85526 | 33812 ft | 463 kts | 284° |
| 2026-05-08 02:13 | 17.33077 | -62.87812 | 34123 ft | 467 kts | 284° |
| 2026-05-08 02:14 | 17.33660 | -62.90955 | 34534 ft | 470 kts | 284° |
| 2026-05-08 02:14 | 17.34265 | -62.94226 | 34989 ft | 472 kts | 284° |
| 2026-05-08 02:14 | 17.34805 | -62.97142 | 35382 ft | 475 kts | 284° |
| 2026-05-08 02:14 | 17.35439 | -63.00565 | 35834 ft | 477 kts | 284° |
| 2026-05-08 02:15 | 17.36094 | -63.04027 | 36260 ft | 480 kts | 284° |
| 2026-05-08 02:15 | 17.36769 | -63.07467 | 36687 ft | 483 kts | 284° |
| 2026-05-08 02:15 | 17.37432 | -63.10876 | 37100 ft | 486 kts | 284° |
| 2026-05-08 02:15 | 17.38098 | -63.14395 | 37525 ft | 489 kts | 284° |
| 2026-05-08 02:16 | 17.38761 | -63.17898 | 37934 ft | 492 kts | 284° |
| 2026-05-08 02:16 | 17.39444 | -63.21443 | 37991 ft | 502 kts | 284° |
| 2026-05-08 02:16 | 17.40838 | -63.28722 | 38002 ft | 518 kts | 284° |
| 2026-05-08 02:17 | 17.42259 | -63.36206 | 38003 ft | 527 kts | 284° |
| 2026-05-08 02:17 | 17.43703 | -63.43788 | 38009 ft | 534 kts | 284° |
| 2026-05-08 02:18 | 17.45160 | -63.51481 | 38004 ft | 535 kts | 284° |
| 2026-05-08 02:18 | 17.46606 | -63.59112 | 38008 ft | 535 kts | 284° |
| 2026-05-08 02:19 | 17.47993 | -63.66463 | 38001 ft | 533 kts | 284° |
| 2026-05-08 02:19 | 17.49429 | -63.74076 | 37991 ft | 530 kts | 284° |
| 2026-05-08 02:20 | 17.50850 | -63.81635 | 37996 ft | 527 kts | 285° |
| 2026-05-08 02:20 | 17.52263 | -63.89162 | 37992 ft | 525 kts | 285° |
| 2026-05-08 02:21 | 17.53668 | -63.96665 | 38072 ft | 523 kts | 285° |
| 2026-05-08 02:21 | 17.55067 | -64.04145 | 38061 ft | 523 kts | 285° |
| 2026-05-08 02:22 | 17.56461 | -64.11628 | 38071 ft | 523 kts | 285° |
| 2026-05-08 02:22 | 17.57843 | -64.19054 | 38066 ft | 524 kts | 285° |
| 2026-05-08 02:23 | 17.59251 | -64.26641 | 38065 ft | 524 kts | 285° |
| 2026-05-08 02:23 | 17.60645 | -64.34159 | 38066 ft | 525 kts | 285° |
| 2026-05-08 02:24 | 17.62044 | -64.41730 | 38062 ft | 525 kts | 285° |
| 2026-05-08 02:24 | 17.63315 | -64.48622 | 38062 ft | 526 kts | 285° |
| 2026-05-08 02:25 | 17.64692 | -64.56103 | 38066 ft | 526 kts | 285° |
| 2026-05-08 02:25 | 17.66087 | -64.63699 | 38064 ft | 526 kts | 285° |
| 2026-05-08 02:26 | 17.67403 | -64.70885 | 38066 ft | 526 kts | 286° |
| 2026-05-08 02:26 | 17.68788 | -64.78456 | 38068 ft | 526 kts | 286° |
| 2026-05-08 02:27 | 17.69931 | -64.84724 | 38067 ft | 526 kts | 286° |
| 2026-05-08 02:27 | 17.71303 | -64.92253 | 38065 ft | 526 kts | 286° |
| 2026-05-08 02:28 | 17.72675 | -64.99806 | 38067 ft | 525 kts | 286° |
| 2026-05-08 02:28 | 17.74046 | -65.07371 | 38067 ft | 525 kts | 286° |
| 2026-05-08 02:29 | 17.75405 | -65.14885 | 38069 ft | 524 kts | 286° |
| 2026-05-08 02:29 | 17.76759 | -65.22386 | 38067 ft | 524 kts | 286° |
| 2026-05-08 02:30 | 17.78119 | -65.29943 | 38072 ft | 523 kts | 286° |
| 2026-05-08 02:30 | 17.79468 | -65.37452 | 38073 ft | 523 kts | 286° |
| 2026-05-08 02:31 | 17.80812 | -65.44951 | 38073 ft | 523 kts | 286° |
| 2026-05-08 02:31 | 17.82154 | -65.52450 | 38071 ft | 522 kts | 287° |
| 2026-05-08 02:32 | 17.83509 | -65.59932 | 38068 ft | 519 kts | 288° |
| 2026-05-08 02:32 | 17.85484 | -65.67163 | 38083 ft | 515 kts | 293° |
| 2026-05-08 02:33 | 17.87472 | -65.74392 | 38087 ft | 516 kts | 292° |
| 2026-05-08 02:33 | 17.89461 | -65.81626 | 38088 ft | 515 kts | 292° |
| 2026-05-08 02:34 | 17.91451 | -65.88847 | 38083 ft | 515 kts | 292° |
| 2026-05-08 02:34 | 17.93426 | -65.96064 | 38088 ft | 515 kts | 292° |
| 2026-05-08 02:35 | 17.95415 | -66.03306 | 38088 ft | 515 kts | 292° |
| 2026-05-08 02:35 | 17.97411 | -66.10616 | 38087 ft | 515 kts | 292° |
| 2026-05-08 02:36 | 17.99406 | -66.17912 | 38084 ft | 515 kts | 292° |
| 2026-05-08 02:36 | 18.01363 | -66.25096 | 38087 ft | 514 kts | 292° |
| 2026-05-08 02:37 | 18.02027 | -66.27532 | 38078 ft | 514 kts | 292° |
| 2026-05-08 02:39 | 18.02552 | -66.29458 | 38085 ft | 514 kts | 292° |
| 2026-05-08 02:39 | 18.04426 | -66.36348 | 38067 ft | 514 kts | 292° |
| 2026-05-08 02:40 | 18.06388 | -66.43575 | 38075 ft | 514 kts | 292° |
| 2026-05-08 02:40 | 18.08375 | -66.50899 | 38066 ft | 514 kts | 292° |
| 2026-05-08 02:41 | 18.10324 | -66.58103 | 38076 ft | 513 kts | 292° |
| 2026-05-08 02:41 | 18.12283 | -66.65346 | 38075 ft | 513 kts | 292° |
| 2026-05-08 02:42 | 18.14229 | -66.72561 | 38085 ft | 513 kts | 292° |
| 2026-05-08 02:42 | 18.16174 | -66.79778 | 38085 ft | 513 kts | 292° |
| 2026-05-08 02:43 | 18.18130 | -66.87050 | 38089 ft | 513 kts | 292° |
| 2026-05-08 02:43 | 18.20066 | -66.94260 | 38090 ft | 513 kts | 292° |
| 2026-05-08 02:44 | 18.22020 | -67.01546 | 38086 ft | 513 kts | 291° |
| 2026-05-08 02:44 | 18.23601 | -67.07452 | 38082 ft | 513 kts | 291° |
| 2026-05-08 02:45 | 18.25559 | -67.14778 | 38085 ft | 513 kts | 291° |
| 2026-05-08 02:45 | 18.27473 | -67.22000 | 38074 ft | 513 kts | 291° |
| 2026-05-08 02:46 | 18.29153 | -67.28368 | 38071 ft | 512 kts | 291° |
| 2026-05-08 02:46 | 18.31075 | -67.35634 | 38073 ft | 513 kts | 291° |
| 2026-05-08 02:47 | 18.32979 | -67.42868 | 38073 ft | 513 kts | 291° |
| 2026-05-08 02:47 | 18.34871 | -67.50053 | 38068 ft | 513 kts | 291° |
| 2026-05-08 02:48 | 18.36743 | -67.57184 | 38065 ft | 513 kts | 291° |
| 2026-05-08 02:48 | 18.38650 | -67.64452 | 38070 ft | 513 kts | 291° |
| 2026-05-08 02:49 | 18.40544 | -67.71688 | 38068 ft | 514 kts | 291° |
| 2026-05-08 02:49 | 18.42444 | -67.78958 | 38074 ft | 514 kts | 291° |
| 2026-05-08 02:50 | 18.44336 | -67.86207 | 38065 ft | 514 kts | 291° |
| 2026-05-08 02:50 | 18.45910 | -67.92252 | 38069 ft | 514 kts | 291° |
| 2026-05-08 02:51 | 18.47621 | -67.99524 | 38057 ft | 520 kts | 284° |
| 2026-05-08 02:51 | 18.47826 | -68.07197 | 37466 ft | 533 kts | 273° |
| 2026-05-08 02:52 | 18.47668 | -68.11085 | 36773 ft | 516 kts | 272° |
| 2026-05-08 02:52 | 18.47570 | -68.14814 | 36101 ft | 503 kts | 274° |
| 2026-05-08 02:52 | 18.47542 | -68.18460 | 35445 ft | 492 kts | 275° |
| 2026-05-08 02:52 | 18.47487 | -68.22016 | 34807 ft | 483 kts | 274° |
| 2026-05-08 02:53 | 18.47383 | -68.25541 | 34176 ft | 476 kts | 273° |
| 2026-05-08 02:53 | 18.47288 | -68.28981 | 33512 ft | 467 kts | 273° |
| 2026-05-08 02:53 | 18.47228 | -68.32384 | 32909 ft | 458 kts | 274° |
| 2026-05-08 02:53 | 18.47168 | -68.35686 | 32325 ft | 451 kts | 273° |
| 2026-05-08 02:54 | 18.47089 | -68.38982 | 31732 ft | 445 kts | 272° |
| 2026-05-08 02:54 | 18.47007 | -68.42190 | 31154 ft | 439 kts | 272° |
| 2026-05-08 02:54 | 18.46936 | -68.45438 | 30561 ft | 435 kts | 271° |
| 2026-05-08 02:54 | 18.46869 | -68.48609 | 29977 ft | 432 kts | 271° |
| 2026-05-08 02:55 | 18.46795 | -68.51756 | 29391 ft | 426 kts | 271° |
| 2026-05-08 02:55 | 18.46647 | -68.57926 | 28283 ft | 416 kts | 271° |
| 2026-05-08 02:55 | 18.46578 | -68.60956 | 27739 ft | 412 kts | 271° |
| 2026-05-08 02:56 | 18.46506 | -68.63963 | 27199 ft | 408 kts | 271° |
| 2026-05-08 02:56 | 18.46433 | -68.66999 | 26653 ft | 411 kts | 270° |
| 2026-05-08 02:56 | 18.46361 | -68.70021 | 26111 ft | 413 kts | 270° |
| 2026-05-08 02:56 | 18.46288 | -68.73051 | 25567 ft | 414 kts | 270° |
| 2026-05-08 02:57 | 18.46213 | -68.76085 | 25020 ft | 414 kts | 270° |
| 2026-05-08 02:57 | 18.46130 | -68.79117 | 24469 ft | 413 kts | 269° |
| 2026-05-08 02:57 | 18.45909 | -68.82124 | 23931 ft | 412 kts | 267° |
| 2026-05-08 02:57 | 18.45752 | -68.85127 | 23340 ft | 410 kts | 269° |
| 2026-05-08 02:58 | 18.45611 | -68.88112 | 22797 ft | 404 kts | 268° |
| 2026-05-08 02:58 | 18.45429 | -68.91020 | 22268 ft | 399 kts | 268° |
| 2026-05-08 02:58 | 18.45387 | -68.93940 | 21745 ft | 393 kts | 270° |
| 2026-05-08 02:58 | 18.45323 | -68.95827 | 21408 ft | 390 kts | 269° |
| 2026-05-08 03:00 | 18.45190 | -68.98636 | 20906 ft | 386 kts | 268° |
| 2026-05-08 03:00 | 18.45108 | -69.01384 | 20411 ft | 382 kts | 270° |
| 2026-05-08 03:00 | 18.45064 | -69.04212 | 19909 ft | 379 kts | 270° |
| 2026-05-08 03:00 | 18.44998 | -69.07032 | 19401 ft | 376 kts | 269° |
| 2026-05-08 03:01 | 18.44910 | -69.09767 | 18909 ft | 373 kts | 269° |
| 2026-05-08 03:01 | 18.44830 | -69.12492 | 18426 ft | 371 kts | 269° |
| 2026-05-08 03:01 | 18.44774 | -69.14776 | 17974 ft | 368 kts | 270° |
| 2026-05-08 03:01 | 18.44708 | -69.17427 | 17494 ft | 363 kts | 269° |
| 2026-05-08 03:02 | 18.44632 | -69.20098 | 17017 ft | 359 kts | 269° |
| 2026-05-08 03:02 | 18.44557 | -69.22711 | 16545 ft | 355 kts | 270° |
| 2026-05-08 03:02 | 18.44487 | -69.25295 | 16084 ft | 351 kts | 270° |
| 2026-05-08 03:02 | 18.44419 | -69.27854 | 15624 ft | 347 kts | 270° |
| 2026-05-08 03:03 | 18.44357 | -69.30389 | 15164 ft | 344 kts | 270° |
| 2026-05-08 03:03 | 18.44297 | -69.32892 | 14716 ft | 341 kts | 270° |
| 2026-05-08 03:03 | 18.44234 | -69.35368 | 14269 ft | 338 kts | 270° |
| 2026-05-08 03:03 | 18.44170 | -69.37845 | 13820 ft | 336 kts | 270° |
| 2026-05-08 03:04 | 18.44108 | -69.40286 | 13352 ft | 333 kts | 270° |
| 2026-05-08 03:04 | 18.44047 | -69.42677 | 12928 ft | 329 kts | 270° |
| 2026-05-08 03:04 | 18.43986 | -69.45080 | 12499 ft | 327 kts | 270° |
| 2026-05-08 03:04 | 18.43924 | -69.47471 | 12071 ft | 325 kts | 270° |
| 2026-05-08 03:05 | 18.43862 | -69.49848 | 11646 ft | 325 kts | 270° |
| 2026-05-08 03:05 | 18.43800 | -69.52227 | 11220 ft | 325 kts | 270° |
| 2026-05-08 03:05 | 18.43738 | -69.54606 | 10789 ft | 325 kts | 270° |
| 2026-05-08 03:05 | 18.43676 | -69.56987 | 10364 ft | 325 kts | 270° |
| 2026-05-08 03:06 | 18.43618 | -69.59118 | 9971 ft | 314 kts | 270° |
| 2026-05-08 03:06 | 18.43558 | -69.61364 | 9493 ft | 299 kts | 270° |
| 2026-05-08 03:06 | 18.43541 | -69.61985 | 9379 ft | 292 kts | 270° |
| 2026-05-08 03:09 | 18.43479 | -69.64260 | 8971 ft | 266 kts | 270° |
| 2026-05-08 03:09 | 18.43432 | -69.66024 | 8658 ft | 252 kts | 270° |
| 2026-05-08 03:09 | 18.43167 | -69.67833 | 8310 ft | 248 kts | 257° |
| 2026-05-08 03:09 | 18.42708 | -69.69576 | 8022 ft | 245 kts | 255° |
| 2026-05-08 03:10 | 18.42265 | -69.71299 | 7721 ft | 243 kts | 256° |
| 2026-05-08 03:10 | 18.41844 | -69.73006 | 7406 ft | 242 kts | 256° |
| 2026-05-08 03:10 | 18.41418 | -69.74728 | 7085 ft | 241 kts | 256° |
| 2026-05-08 03:10 | 18.40989 | -69.76438 | 6768 ft | 243 kts | 256° |
| 2026-05-08 03:11 | 18.40816 | -69.77129 | 6639 ft | 243 kts | 256° |
| 2026-05-08 03:11 | 18.40385 | -69.78851 | 6301 ft | 244 kts | 256° |
| 2026-05-08 03:11 | 18.39960 | -69.80549 | 5980 ft | 244 kts | 256° |
| 2026-05-08 03:11 | 18.39520 | -69.82302 | 5652 ft | 244 kts | 256° |
| 2026-05-08 03:12 | 18.39088 | -69.84025 | 5329 ft | 244 kts | 255° |
| 2026-05-08 03:12 | 18.38665 | -69.85713 | 5015 ft | 243 kts | 255° |
| 2026-05-08 03:12 | 18.38235 | -69.87424 | 4706 ft | 244 kts | 255° |
| 2026-05-08 03:12 | 18.37806 | -69.89134 | 4372 ft | 239 kts | 255° |
| 2026-05-08 03:13 | 18.37465 | -69.90845 | 4004 ft | 234 kts | 266° |
| 2026-05-08 03:13 | 18.37799 | -69.92494 | 3701 ft | 228 kts | 289° |
| 2026-05-08 03:13 | 18.38286 | -69.94045 | 3456 ft | 225 kts | 288° |
| 2026-05-08 03:13 | 18.38752 | -69.95635 | 3160 ft | 227 kts | 287° |
| 2026-05-08 03:14 | 18.39219 | -69.97246 | 2857 ft | 232 kts | 288° |
| 2026-05-08 03:14 | 18.40007 | -69.98658 | 2438 ft | 235 kts | 318° |
| 2026-05-08 03:14 | 18.41404 | -69.99362 | 2401 ft | 220 kts | 348° |
| 2026-05-08 03:14 | 18.42914 | -69.99486 | 2287 ft | 207 kts | 360° |
| 2026-05-08 03:15 | 18.44226 | -69.99534 | 2168 ft | 173 kts | 360° |
| 2026-05-08 03:15 | 18.45362 | -69.99591 | 2026 ft | 155 kts | 359° |
| 2026-05-08 03:15 | 18.46417 | -69.99649 | 1893 ft | 145 kts | 359° |
| 2026-05-08 03:15 | 18.47388 | -69.99701 | 1768 ft | 138 kts | 359° |
| 2026-05-08 03:16 | 18.48189 | -69.99737 | 1677 ft | 128 kts | 1° |
| 2026-05-08 03:16 | 18.49041 | -69.99623 | 1656 ft | 113 kts | 9° |
| 2026-05-08 03:16 | 18.49813 | -69.99507 | 1580 ft | 113 kts | 12° |
| 2026-05-08 03:16 | 18.50595 | -69.99387 | 1384 ft | 117 kts | 9° |
| 2026-05-08 03:17 | 18.51418 | -69.99274 | 1134 ft | 116 kts | 9° |
| 2026-05-08 03:17 | 18.52203 | -69.99159 | 888 ft | 114 kts | 9° |
| 2026-05-08 03:17 | 18.52990 | -69.99063 | 733 ft | 113 kts | 6° |
| 2026-05-08 03:17 | 18.53760 | -69.98984 | 628 ft | 110 kts | 6° |
| 2026-05-08 03:18 | 18.54522 | -69.98896 | 497 ft | 111 kts | 6° |
| 2026-05-08 03:18 | 18.55277 | -69.98802 | 355 ft | 108 kts | 7° |
| 2026-05-08 03:18 | 18.56024 | -69.98711 | 214 ft | 107 kts | 7° |
| 2026-05-08 03:18 | 18.56512 | -69.98653 | 108 ft | 102 kts | 7° |
| 2026-05-08 03:21 | 18.57316 | -69.98558 | 97 ft | 58 kts | 7° |
| 2026-05-08 03:21 | 18.57623 | -69.98521 | 98 ft | 37 kts | 6° |
| 2026-05-08 03:21 | 18.57791 | -69.98501 | 99 ft | 35 kts | 6° |
| 2026-05-08 03:21 | 18.57935 | -69.98480 | 97 ft | 15 kts | 27° |
| 2026-05-08 03:22 | 18.57956 | -69.98399 | 99 ft | 8 kts | 98° |
| 2026-05-08 03:22 | 18.57947 | -69.98343 | 99 ft | 7 kts | 105° |
| 2026-05-08 03:22 | 18.57907 | -69.98321 | 99 ft | 8 kts | 185° |
| 2026-05-08 03:22 | 18.57842 | -69.98328 | 99 ft | 11 kts | 186° |
| 2026-05-08 03:23 | 18.57755 | -69.98339 | 99 ft | 14 kts | 186° |
| 2026-05-08 03:23 | 18.57652 | -69.98358 | 99 ft | 9 kts | 187° |
| 2026-05-08 03:23 | 18.57581 | -69.98369 | 99 ft | 11 kts | 186° |
| 2026-05-08 03:23 | 18.57560 | -69.98371 | 99 ft | 2 kts | 186° |
| 2026-05-08 03:24 | 18.57555 | -69.98365 | 99 ft | 1 kts | 102° |
| 2026-05-08 03:24 | 18.57555 | -69.98364 | 99 ft | 0 kts | 95° |